sensor_id;sensor_type;location;lat;lon;timestamp;temperature;humidity
48019;DHT22;33786;48.690;9.562;2022-12-07T00:01:10;4.00;99.90
48019;DHT22;33786;48.690;9.562;2022-12-07T00:03:38;4.00;99.90
48019;DHT22;33786;48.690;9.562;2022-12-07T00:06:05;4.00;99.90
48019;DHT22;33786;48.690;9.562;2022-12-07T00:08:33;3.90;99.90
48019;DHT22;33786;48.690;9.562;2022-12-07T00:11:03;3.90;99.90
48019;DHT22;33786;48.690;9.562;2022-12-07T00:13:31;3.90;99.90
48019;DHT22;33786;48.690;9.562;2022-12-07T00:16:01;4.00;99.90
48019;DHT22;33786;48.690;9.562;2022-12-07T00:18:28;3.90;99.90
48019;DHT22;33786;48.690;9.562;2022-12-07T00:20:59;4.00;99.90
48019;DHT22;33786;48.690;9.562;2022-12-07T00:23:26;4.00;99.90
48019;DHT22;33786;48.690;9.562;2022-12-07T00:25:52;4.00;99.90
48019;DHT22;33786;48.690;9.562;2022-12-07T00:28:19;4.00;99.90
48019;DHT22;33786;48.690;9.562;2022-12-07T00:30:46;4.00;99.90
48019;DHT22;33786;48.690;9.562;2022-12-07T00:33:12;4.00;99.90
48019;DHT22;33786;48.690;9.562;2022-12-07T00:35:39;4.10;99.90
48019;DHT22;33786;48.690;9.562;2022-12-07T00:38:06;4.10;99.90
48019;DHT22;33786;48.690;9.562;2022-12-07T00:40:34;4.10;99.90
48019;DHT22;33786;48.690;9.562;2022-12-07T00:43:00;4.00;99.90
48019;DHT22;33786;48.690;9.562;2022-12-07T00:45:27;4.10;99.90
48019;DHT22;33786;48.690;9.562;2022-12-07T00:47:54;4.00;99.90
48019;DHT22;33786;48.690;9.562;2022-12-07T00:50:20;4.00;99.90
48019;DHT22;33786;48.690;9.562;2022-12-07T00:52:47;4.00;99.90
48019;DHT22;33786;48.690;9.562;2022-12-07T00:55:14;4.10;99.90
48019;DHT22;33786;48.690;9.562;2022-12-07T00:57:40;4.10;99.90
48019;DHT22;33786;48.690;9.562;2022-12-07T01:00:07;4.10;99.90
48019;DHT22;33786;48.690;9.562;2022-12-07T01:02:34;4.00;99.90
48019;DHT22;33786;48.690;9.562;2022-12-07T01:05:01;4.10;99.90
48019;DHT22;33786;48.690;9.562;2022-12-07T01:07:27;4.10;99.90
48019;DHT22;33786;48.690;9.562;2022-12-07T01:09:54;4.10;99.90
48019;DHT22;33786;48.690;9.562;2022-12-07T01:12:21;4.00;99.90
48019;DHT22;33786;48.690;9.562;2022-12-07T01:14:47;4.00;99.90
48019;DHT22;33786;48.690;9.562;2022-12-07T01:17:14;4.00;99.90
48019;DHT22;33786;48.690;9.562;2022-12-07T01:19:41;4.00;99.90
48019;DHT22;33786;48.690;9.562;2022-12-07T01:22:07;4.00;99.90
48019;DHT22;33786;48.690;9.562;2022-12-07T01:24:34;4.00;99.90
48019;DHT22;33786;48.690;9.562;2022-12-07T01:27:01;4.00;99.90
48019;DHT22;33786;48.690;9.562;2022-12-07T01:29:27;4.00;99.90
48019;DHT22;33786;48.690;9.562;2022-12-07T01:31:54;4.10;99.90
48019;DHT22;33786;48.690;9.562;2022-12-07T01:34:21;4.10;99.90
48019;DHT22;33786;48.690;9.562;2022-12-07T01:36:48;3.70;99.90
48019;DHT22;33786;48.690;9.562;2022-12-07T01:39:14;4.00;99.90
48019;DHT22;33786;48.690;9.562;2022-12-07T01:41:41;4.10;99.90
48019;DHT22;33786;48.690;9.562;2022-12-07T01:46:36;4.00;99.90
48019;DHT22;33786;48.690;9.562;2022-12-07T01:49:04;4.00;99.90
48019;DHT22;33786;48.690;9.562;2022-12-07T01:51:32;4.10;99.90
48019;DHT22;33786;48.690;9.562;2022-12-07T01:53:59;4.10;99.90
48019;DHT22;33786;48.690;9.562;2022-12-07T01:56:27;4.00;99.90
48019;DHT22;33786;48.690;9.562;2022-12-07T01:58:55;4.00;99.90
48019;DHT22;33786;48.690;9.562;2022-12-07T02:01:22;4.00;99.90
48019;DHT22;33786;48.690;9.562;2022-12-07T02:03:49;4.00;99.90
48019;DHT22;33786;48.690;9.562;2022-12-07T02:06:17;4.00;99.90
48019;DHT22;33786;48.690;9.562;2022-12-07T02:08:45;4.00;99.90
48019;DHT22;33786;48.690;9.562;2022-12-07T02:11:12;4.00;99.90
48019;DHT22;33786;48.690;9.562;2022-12-07T02:13:39;3.80;99.90
48019;DHT22;33786;48.690;9.562;2022-12-07T02:16:29;3.90;99.90
48019;DHT22;33786;48.690;9.562;2022-12-07T02:21:48;3.90;99.90
48019;DHT22;33786;48.690;9.562;2022-12-07T02:30:07;3.80;99.90
48019;DHT22;33786;48.690;9.562;2022-12-07T02:35:06;3.60;99.90
48019;DHT22;33786;48.690;9.562;2022-12-07T02:37:34;3.60;99.90
48019;DHT22;33786;48.690;9.562;2022-12-07T02:42:32;3.70;99.90
48019;DHT22;33786;48.690;9.562;2022-12-07T02:45:00;3.70;99.90
48019;DHT22;33786;48.690;9.562;2022-12-07T02:47:27;3.70;99.90
48019;DHT22;33786;48.690;9.562;2022-12-07T02:49:56;3.70;99.90
48019;DHT22;33786;48.690;9.562;2022-12-07T02:52:22;3.70;99.90
48019;DHT22;33786;48.690;9.562;2022-12-07T02:54:49;3.70;99.90
48019;DHT22;33786;48.690;9.562;2022-12-07T02:59:53;3.70;99.90
48019;DHT22;33786;48.690;9.562;2022-12-07T03:18:11;3.60;99.90
48019;DHT22;33786;48.690;9.562;2022-12-07T03:20:39;3.50;99.90
48019;DHT22;33786;48.690;9.562;2022-12-07T03:23:07;3.50;99.90
48019;DHT22;33786;48.690;9.562;2022-12-07T03:25:39;3.50;99.90
48019;DHT22;33786;48.690;9.562;2022-12-07T03:28:07;3.40;99.90
48019;DHT22;33786;48.690;9.562;2022-12-07T03:33:25;3.40;99.90
48019;DHT22;33786;48.690;9.562;2022-12-07T03:36:01;3.40;99.90
48019;DHT22;33786;48.690;9.562;2022-12-07T03:38:34;3.40;99.90
48019;DHT22;33786;48.690;9.562;2022-12-07T03:41:14;3.40;99.90
48019;DHT22;33786;48.690;9.562;2022-12-07T03:43:42;3.30;99.90
48019;DHT22;33786;48.690;9.562;2022-12-07T03:51:24;3.30;99.90
48019;DHT22;33786;48.690;9.562;2022-12-07T03:53:57;3.30;99.90
48019;DHT22;33786;48.690;9.562;2022-12-07T03:56:25;3.30;99.90
48019;DHT22;33786;48.690;9.562;2022-12-07T03:58:53;3.40;99.90
48019;DHT22;33786;48.690;9.562;2022-12-07T04:01:20;3.40;99.90
48019;DHT22;33786;48.690;9.562;2022-12-07T04:03:47;3.30;99.90
48019;DHT22;33786;48.690;9.562;2022-12-07T04:06:13;3.40;99.90
48019;DHT22;33786;48.690;9.562;2022-12-07T04:08:40;3.30;99.90
48019;DHT22;33786;48.690;9.562;2022-12-07T04:11:07;3.30;99.90
48019;DHT22;33786;48.690;9.562;2022-12-07T04:13:33;3.30;99.90
48019;DHT22;33786;48.690;9.562;2022-12-07T04:16:20;3.20;99.90
48019;DHT22;33786;48.690;9.562;2022-12-07T04:18:47;3.20;99.90
48019;DHT22;33786;48.690;9.562;2022-12-07T04:21:14;3.10;99.90
48019;DHT22;33786;48.690;9.562;2022-12-07T04:23:40;3.10;99.90
48019;DHT22;33786;48.690;9.562;2022-12-07T04:26:07;3.10;99.90
48019;DHT22;33786;48.690;9.562;2022-12-07T04:28:34;3.10;99.90
48019;DHT22;33786;48.690;9.562;2022-12-07T04:31:00;3.10;99.90
48019;DHT22;33786;48.690;9.562;2022-12-07T04:33:27;3.10;99.90
48019;DHT22;33786;48.690;9.562;2022-12-07T04:35:54;3.10;99.90
48019;DHT22;33786;48.690;9.562;2022-12-07T04:38:20;3.10;99.90
48019;DHT22;33786;48.690;9.562;2022-12-07T04:40:47;3.00;99.90
48019;DHT22;33786;48.690;9.562;2022-12-07T04:43:14;3.00;99.90
48019;DHT22;33786;48.690;9.562;2022-12-07T04:45:45;3.00;99.90
48019;DHT22;33786;48.690;9.562;2022-12-07T04:48:11;2.90;99.90
48019;DHT22;33786;48.690;9.562;2022-12-07T04:50:38;2.90;99.90
48019;DHT22;33786;48.690;9.562;2022-12-07T04:53:11;2.90;99.90
48019;DHT22;33786;48.690;9.562;2022-12-07T04:55:38;2.80;99.90
48019;DHT22;33786;48.690;9.562;2022-12-07T04:58:04;2.70;99.90
48019;DHT22;33786;48.690;9.562;2022-12-07T05:00:31;2.70;99.90
48019;DHT22;33786;48.690;9.562;2022-12-07T05:02:58;2.60;99.90
48019;DHT22;33786;48.690;9.562;2022-12-07T05:05:24;2.50;99.90
48019;DHT22;33786;48.690;9.562;2022-12-07T05:07:51;2.50;99.90
48019;DHT22;33786;48.690;9.562;2022-12-07T05:10:18;2.30;99.90
48019;DHT22;33786;48.690;9.562;2022-12-07T05:12:45;2.20;99.90
48019;DHT22;33786;48.690;9.562;2022-12-07T05:15:12;2.10;99.90
48019;DHT22;33786;48.690;9.562;2022-12-07T05:17:39;2.00;99.90
48019;DHT22;33786;48.690;9.562;2022-12-07T05:20:06;1.90;99.90
48019;DHT22;33786;48.690;9.562;2022-12-07T05:22:33;1.70;99.90
48019;DHT22;33786;48.690;9.562;2022-12-07T05:24:59;1.70;99.90
48019;DHT22;33786;48.690;9.562;2022-12-07T05:27:26;1.60;99.90
48019;DHT22;33786;48.690;9.562;2022-12-07T05:29:53;1.60;99.90
48019;DHT22;33786;48.690;9.562;2022-12-07T05:32:19;1.60;99.90
48019;DHT22;33786;48.690;9.562;2022-12-07T05:34:46;1.50;99.90
48019;DHT22;33786;48.690;9.562;2022-12-07T05:37:13;1.50;99.90
48019;DHT22;33786;48.690;9.562;2022-12-07T05:39:39;1.50;99.90
48019;DHT22;33786;48.690;9.562;2022-12-07T05:42:10;1.50;99.90
48019;DHT22;33786;48.690;9.562;2022-12-07T05:47:06;1.60;99.90
48019;DHT22;33786;48.690;9.562;2022-12-07T05:49:33;1.60;99.90
48019;DHT22;33786;48.690;9.562;2022-12-07T05:51:59;1.70;99.90
48019;DHT22;33786;48.690;9.562;2022-12-07T05:54:26;1.80;99.90
48019;DHT22;33786;48.690;9.562;2022-12-07T05:56:53;1.80;99.90
48019;DHT22;33786;48.690;9.562;2022-12-07T05:59:20;1.90;99.90
48019;DHT22;33786;48.690;9.562;2022-12-07T06:04:17;2.10;99.90
48019;DHT22;33786;48.690;9.562;2022-12-07T06:06:43;2.10;99.90
48019;DHT22;33786;48.690;9.562;2022-12-07T06:09:10;2.00;99.90
48019;DHT22;33786;48.690;9.562;2022-12-07T06:11:38;2.10;99.90
48019;DHT22;33786;48.690;9.562;2022-12-07T06:14:23;2.00;99.90
48019;DHT22;33786;48.690;9.562;2022-12-07T06:16:50;2.10;99.90
48019;DHT22;33786;48.690;9.562;2022-12-07T06:19:17;2.10;99.90
48019;DHT22;33786;48.690;9.562;2022-12-07T06:21:43;2.20;99.90
48019;DHT22;33786;48.690;9.562;2022-12-07T06:24:11;2.20;99.90
48019;DHT22;33786;48.690;9.562;2022-12-07T06:26:38;2.20;99.90
48019;DHT22;33786;48.690;9.562;2022-12-07T06:29:04;2.30;99.90
48019;DHT22;33786;48.690;9.562;2022-12-07T06:31:31;2.20;99.90
48019;DHT22;33786;48.690;9.562;2022-12-07T06:33:59;2.30;99.90
48019;DHT22;33786;48.690;9.562;2022-12-07T06:36:26;2.30;99.90
48019;DHT22;33786;48.690;9.562;2022-12-07T06:38:53;2.30;99.90
48019;DHT22;33786;48.690;9.562;2022-12-07T06:41:20;2.30;99.90
48019;DHT22;33786;48.690;9.562;2022-12-07T06:43:47;2.30;99.90
48019;DHT22;33786;48.690;9.562;2022-12-07T06:46:21;2.30;99.90
48019;DHT22;33786;48.690;9.562;2022-12-07T06:48:48;2.30;99.90
48019;DHT22;33786;48.690;9.562;2022-12-07T06:51:15;2.20;99.90
48019;DHT22;33786;48.690;9.562;2022-12-07T06:53:41;2.20;99.90
48019;DHT22;33786;48.690;9.562;2022-12-07T06:56:08;2.20;99.90
48019;DHT22;33786;48.690;9.562;2022-12-07T06:58:35;2.20;99.90
48019;DHT22;33786;48.690;9.562;2022-12-07T07:01:01;2.20;99.90
48019;DHT22;33786;48.690;9.562;2022-12-07T07:03:29;2.20;99.90
48019;DHT22;33786;48.690;9.562;2022-12-07T07:05:56;2.30;99.90
48019;DHT22;33786;48.690;9.562;2022-12-07T07:08:22;2.30;99.90
48019;DHT22;33786;48.690;9.562;2022-12-07T07:10:49;2.30;99.90
48019;DHT22;33786;48.690;9.562;2022-12-07T07:13:17;2.30;99.90
48019;DHT22;33786;48.690;9.562;2022-12-07T07:15:44;2.30;99.90
48019;DHT22;33786;48.690;9.562;2022-12-07T07:18:10;2.30;99.90
48019;DHT22;33786;48.690;9.562;2022-12-07T07:20:38;2.30;99.90
48019;DHT22;33786;48.690;9.562;2022-12-07T07:23:04;2.30;99.90
48019;DHT22;33786;48.690;9.562;2022-12-07T07:25:31;2.30;99.90
48019;DHT22;33786;48.690;9.562;2022-12-07T07:27:58;2.30;99.90
48019;DHT22;33786;48.690;9.562;2022-12-07T07:30:25;2.30;99.90
48019;DHT22;33786;48.690;9.562;2022-12-07T07:32:56;2.40;99.90
48019;DHT22;33786;48.690;9.562;2022-12-07T07:35:22;2.40;99.90
48019;DHT22;33786;48.690;9.562;2022-12-07T07:37:49;2.40;99.90
48019;DHT22;33786;48.690;9.562;2022-12-07T07:40:16;2.40;99.90
48019;DHT22;33786;48.690;9.562;2022-12-07T07:42:43;2.50;99.90
48019;DHT22;33786;48.690;9.562;2022-12-07T07:45:09;2.50;99.90
48019;DHT22;33786;48.690;9.562;2022-12-07T07:47:36;2.50;99.90
48019;DHT22;33786;48.690;9.562;2022-12-07T07:50:03;2.60;99.90
48019;DHT22;33786;48.690;9.562;2022-12-07T07:52:30;2.70;99.90
48019;DHT22;33786;48.690;9.562;2022-12-07T07:54:57;2.70;99.90
48019;DHT22;33786;48.690;9.562;2022-12-07T07:57:24;2.80;99.90
48019;DHT22;33786;48.690;9.562;2022-12-07T07:59:50;2.80;99.90
48019;DHT22;33786;48.690;9.562;2022-12-07T08:02:18;2.90;99.90
48019;DHT22;33786;48.690;9.562;2022-12-07T08:04:45;2.90;99.90
48019;DHT22;33786;48.690;9.562;2022-12-07T08:07:12;3.00;99.90
48019;DHT22;33786;48.690;9.562;2022-12-07T08:09:39;3.00;99.90
48019;DHT22;33786;48.690;9.562;2022-12-07T08:12:06;3.00;99.90
48019;DHT22;33786;48.690;9.562;2022-12-07T08:14:33;3.10;99.90
48019;DHT22;33786;48.690;9.562;2022-12-07T08:17:00;3.20;99.90
48019;DHT22;33786;48.690;9.562;2022-12-07T08:19:27;3.20;99.90
48019;DHT22;33786;48.690;9.562;2022-12-07T08:21:54;3.20;99.90
48019;DHT22;33786;48.690;9.562;2022-12-07T08:24:22;3.30;99.90
48019;DHT22;33786;48.690;9.562;2022-12-07T08:26:49;3.30;99.90
48019;DHT22;33786;48.690;9.562;2022-12-07T08:29:17;3.40;99.90
48019;DHT22;33786;48.690;9.562;2022-12-07T08:31:43;3.40;99.90
48019;DHT22;33786;48.690;9.562;2022-12-07T08:34:11;3.50;99.90
48019;DHT22;33786;48.690;9.562;2022-12-07T08:36:37;3.50;99.90
48019;DHT22;33786;48.690;9.562;2022-12-07T08:39:04;3.60;99.90
48019;DHT22;33786;48.690;9.562;2022-12-07T08:41:51;3.50;99.90
48019;DHT22;33786;48.690;9.562;2022-12-07T08:44:17;3.60;99.90
48019;DHT22;33786;48.690;9.562;2022-12-07T08:46:46;3.70;99.90
48019;DHT22;33786;48.690;9.562;2022-12-07T08:49:18;3.80;99.90
48019;DHT22;33786;48.690;9.562;2022-12-07T08:51:46;3.90;99.90
48019;DHT22;33786;48.690;9.562;2022-12-07T08:54:14;4.00;99.90
48019;DHT22;33786;48.690;9.562;2022-12-07T08:56:42;4.10;99.90
48019;DHT22;33786;48.690;9.562;2022-12-07T08:59:09;4.20;99.90
48019;DHT22;33786;48.690;9.562;2022-12-07T09:01:36;4.40;99.90
48019;DHT22;33786;48.690;9.562;2022-12-07T09:04:03;4.30;99.90
48019;DHT22;33786;48.690;9.562;2022-12-07T09:06:30;4.20;99.90
48019;DHT22;33786;48.690;9.562;2022-12-07T09:08:58;4.20;99.90
48019;DHT22;33786;48.690;9.562;2022-12-07T09:11:26;4.20;99.90
48019;DHT22;33786;48.690;9.562;2022-12-07T09:13:54;4.30;99.90
48019;DHT22;33786;48.690;9.562;2022-12-07T09:16:21;4.30;99.90
48019;DHT22;33786;48.690;9.562;2022-12-07T09:18:48;4.30;99.90
48019;DHT22;33786;48.690;9.562;2022-12-07T09:21:15;4.20;99.90
48019;DHT22;33786;48.690;9.562;2022-12-07T09:23:42;4.20;99.90
48019;DHT22;33786;48.690;9.562;2022-12-07T09:26:09;4.10;99.90
48019;DHT22;33786;48.690;9.562;2022-12-07T09:28:37;4.20;99.90
48019;DHT22;33786;48.690;9.562;2022-12-07T09:31:04;4.20;99.90
48019;DHT22;33786;48.690;9.562;2022-12-07T09:33:54;4.10;99.90
48019;DHT22;33786;48.690;9.562;2022-12-07T09:36:21;4.30;99.90
48019;DHT22;33786;48.690;9.562;2022-12-07T09:38:48;4.30;99.90
48019;DHT22;33786;48.690;9.562;2022-12-07T09:41:15;4.40;99.90
48019;DHT22;33786;48.690;9.562;2022-12-07T09:43:42;4.50;99.90
48019;DHT22;33786;48.690;9.562;2022-12-07T09:46:11;4.60;99.90
48019;DHT22;33786;48.690;9.562;2022-12-07T09:48:39;4.80;99.90
48019;DHT22;33786;48.690;9.562;2022-12-07T09:51:25;5.00;99.90
48019;DHT22;33786;48.690;9.562;2022-12-07T09:53:52;5.10;99.90
48019;DHT22;33786;48.690;9.562;2022-12-07T09:56:20;5.20;99.90
48019;DHT22;33786;48.690;9.562;2022-12-07T09:58:47;5.20;99.90
48019;DHT22;33786;48.690;9.562;2022-12-07T10:03:52;5.30;99.90
48019;DHT22;33786;48.690;9.562;2022-12-07T10:06:19;5.20;99.90
48019;DHT22;33786;48.690;9.562;2022-12-07T10:08:46;5.30;99.90
48019;DHT22;33786;48.690;9.562;2022-12-07T10:11:13;5.20;99.90
48019;DHT22;33786;48.690;9.562;2022-12-07T10:13:46;5.20;99.90
48019;DHT22;33786;48.690;9.562;2022-12-07T10:16:57;5.20;99.90
48019;DHT22;33786;48.690;9.562;2022-12-07T10:24:30;5.50;99.90
48019;DHT22;33786;48.690;9.562;2022-12-07T10:26:58;5.60;99.90
48019;DHT22;33786;48.690;9.562;2022-12-07T10:29:32;5.70;99.90
48019;DHT22;33786;48.690;9.562;2022-12-07T10:32:03;5.80;99.90
48019;DHT22;33786;48.690;9.562;2022-12-07T10:34:35;6.00;99.90
48019;DHT22;33786;48.690;9.562;2022-12-07T10:39:54;6.40;99.90
48019;DHT22;33786;48.690;9.562;2022-12-07T10:44:49;6.30;99.90
48019;DHT22;33786;48.690;9.562;2022-12-07T11:00:21;5.90;99.90
48019;DHT22;33786;48.690;9.562;2022-12-07T11:05:30;6.10;99.90
48019;DHT22;33786;48.690;9.562;2022-12-07T11:10:54;6.40;99.90
48019;DHT22;33786;48.690;9.562;2022-12-07T11:13:56;6.30;99.90
48019;DHT22;33786;48.690;9.562;2022-12-07T11:36:52;5.90;99.90
48019;DHT22;33786;48.690;9.562;2022-12-07T11:39:28;5.70;99.90
48019;DHT22;33786;48.690;9.562;2022-12-07T11:42:00;5.70;99.90
48019;DHT22;33786;48.690;9.562;2022-12-07T11:47:04;5.70;99.90
48019;DHT22;33786;48.690;9.562;2022-12-07T11:51:59;5.80;99.90
48019;DHT22;33786;48.690;9.562;2022-12-07T11:54:32;6.00;99.90
48019;DHT22;33786;48.690;9.562;2022-12-07T11:57:02;6.20;99.90
48019;DHT22;33786;48.690;9.562;2022-12-07T11:59:36;6.10;99.90
48019;DHT22;33786;48.690;9.562;2022-12-07T12:02:24;6.00;99.90
48019;DHT22;33786;48.690;9.562;2022-12-07T12:05:11;6.10;99.90
48019;DHT22;33786;48.690;9.562;2022-12-07T12:07:39;5.90;99.90
48019;DHT22;33786;48.690;9.562;2022-12-07T12:12:56;5.90;99.90
48019;DHT22;33786;48.690;9.562;2022-12-07T12:18:32;6.10;99.90
48019;DHT22;33786;48.690;9.562;2022-12-07T12:21:04;5.90;99.90
48019;DHT22;33786;48.690;9.562;2022-12-07T12:23:35;5.90;99.90
48019;DHT22;33786;48.690;9.562;2022-12-07T12:26:03;5.90;99.90
48019;DHT22;33786;48.690;9.562;2022-12-07T12:31:08;6.20;99.90
48019;DHT22;33786;48.690;9.562;2022-12-07T12:33:35;5.90;99.90
48019;DHT22;33786;48.690;9.562;2022-12-07T12:38:50;6.00;99.90
48019;DHT22;33786;48.690;9.562;2022-12-07T12:46:50;5.90;99.90
48019;DHT22;33786;48.690;9.562;2022-12-07T12:51:48;5.80;99.90
48019;DHT22;33786;48.690;9.562;2022-12-07T12:59:30;5.70;99.90
48019;DHT22;33786;48.690;9.562;2022-12-07T13:04:38;5.50;99.90
48019;DHT22;33786;48.690;9.562;2022-12-07T13:07:09;5.50;99.90
48019;DHT22;33786;48.690;9.562;2022-12-07T13:09:37;5.70;99.90
48019;DHT22;33786;48.690;9.562;2022-12-07T13:12:12;5.80;99.90
48019;DHT22;33786;48.690;9.562;2022-12-07T13:14:41;5.90;99.90
48019;DHT22;33786;48.690;9.562;2022-12-07T13:17:09;5.90;99.90
48019;DHT22;33786;48.690;9.562;2022-12-07T13:27:30;5.90;99.90
48019;DHT22;33786;48.690;9.562;2022-12-07T13:29:57;6.00;99.90
48019;DHT22;33786;48.690;9.562;2022-12-07T13:32:27;5.80;99.90
48019;DHT22;33786;48.690;9.562;2022-12-07T13:34:56;5.80;99.90
48019;DHT22;33786;48.690;9.562;2022-12-07T13:37:30;5.80;99.90
48019;DHT22;33786;48.690;9.562;2022-12-07T13:40:20;5.70;99.90
48019;DHT22;33786;48.690;9.562;2022-12-07T13:42:47;5.60;99.90
48019;DHT22;33786;48.690;9.562;2022-12-07T13:45:20;5.60;99.90
48019;DHT22;33786;48.690;9.562;2022-12-07T13:47:49;5.60;99.90
48019;DHT22;33786;48.690;9.562;2022-12-07T13:52:54;5.50;99.90
48019;DHT22;33786;48.690;9.562;2022-12-07T13:55:21;5.40;99.90
48019;DHT22;33786;48.690;9.562;2022-12-07T13:57:49;5.30;99.90
48019;DHT22;33786;48.690;9.562;2022-12-07T14:00:18;5.40;99.90
48019;DHT22;33786;48.690;9.562;2022-12-07T14:02:55;5.30;99.90
48019;DHT22;33786;48.690;9.562;2022-12-07T14:05:26;5.30;99.90
48019;DHT22;33786;48.690;9.562;2022-12-07T14:07:58;5.30;99.90
48019;DHT22;33786;48.690;9.562;2022-12-07T14:10:26;5.40;99.90
48019;DHT22;33786;48.690;9.562;2022-12-07T14:12:53;5.40;99.90
48019;DHT22;33786;48.690;9.562;2022-12-07T14:15:21;5.30;99.90
48019;DHT22;33786;48.690;9.562;2022-12-07T14:17:51;5.40;99.90
48019;DHT22;33786;48.690;9.562;2022-12-07T14:23:01;5.30;99.90
48019;DHT22;33786;48.690;9.562;2022-12-07T14:26:36;5.40;99.90
48019;DHT22;33786;48.690;9.562;2022-12-07T14:28:32;5.30;99.90
48019;DHT22;33786;48.690;9.562;2022-12-07T14:30:59;5.30;99.90
48019;DHT22;33786;48.690;9.562;2022-12-07T14:33:27;5.20;99.90
48019;DHT22;33786;48.690;9.562;2022-12-07T14:35:54;5.30;99.90
48019;DHT22;33786;48.690;9.562;2022-12-07T14:38:22;5.20;99.90
48019;DHT22;33786;48.690;9.562;2022-12-07T14:40:48;5.20;99.90
48019;DHT22;33786;48.690;9.562;2022-12-07T14:43:15;5.30;99.90
48019;DHT22;33786;48.690;9.562;2022-12-07T14:45:43;5.20;99.90
48019;DHT22;33786;48.690;9.562;2022-12-07T14:48:13;5.20;99.90
48019;DHT22;33786;48.690;9.562;2022-12-07T14:51:00;5.20;99.90
48019;DHT22;33786;48.690;9.562;2022-12-07T14:53:48;5.20;99.90
48019;DHT22;33786;48.690;9.562;2022-12-07T14:56:23;5.10;99.90
48019;DHT22;33786;48.690;9.562;2022-12-07T14:58:50;5.10;99.90
48019;DHT22;33786;48.690;9.562;2022-12-07T15:01:16;5.20;99.90
48019;DHT22;33786;48.690;9.562;2022-12-07T15:03:43;5.10;99.90
48019;DHT22;33786;48.690;9.562;2022-12-07T15:06:10;5.10;99.90
48019;DHT22;33786;48.690;9.562;2022-12-07T15:08:41;5.10;99.90
48019;DHT22;33786;48.690;9.562;2022-12-07T15:11:26;5.10;99.90
48019;DHT22;33786;48.690;9.562;2022-12-07T15:13:52;5.00;99.90
48019;DHT22;33786;48.690;9.562;2022-12-07T15:16:35;5.00;99.90
48019;DHT22;33786;48.690;9.562;2022-12-07T15:19:24;5.00;99.90
48019;DHT22;33786;48.690;9.562;2022-12-07T15:21:55;5.20;99.90
48019;DHT22;33786;48.690;9.562;2022-12-07T15:24:23;4.90;99.90
48019;DHT22;33786;48.690;9.562;2022-12-07T15:26:50;4.90;99.90
48019;DHT22;33786;48.690;9.562;2022-12-07T15:29:17;4.90;99.90
48019;DHT22;33786;48.690;9.562;2022-12-07T15:31:52;4.90;99.90
48019;DHT22;33786;48.690;9.562;2022-12-07T15:34:23;4.90;99.90
48019;DHT22;33786;48.690;9.562;2022-12-07T15:36:51;4.80;99.90
48019;DHT22;33786;48.690;9.562;2022-12-07T15:39:18;4.80;99.90
48019;DHT22;33786;48.690;9.562;2022-12-07T15:41:44;4.80;99.90
48019;DHT22;33786;48.690;9.562;2022-12-07T15:44:12;4.80;99.90
48019;DHT22;33786;48.690;9.562;2022-12-07T15:46:57;4.70;99.90
48019;DHT22;33786;48.690;9.562;2022-12-07T15:49:24;4.80;99.90
48019;DHT22;33786;48.690;9.562;2022-12-07T15:51:51;4.70;99.90
48019;DHT22;33786;48.690;9.562;2022-12-07T15:54:25;4.70;99.90
48019;DHT22;33786;48.690;9.562;2022-12-07T15:56:52;4.70;99.90
48019;DHT22;33786;48.690;9.562;2022-12-07T15:59:19;4.70;99.90
48019;DHT22;33786;48.690;9.562;2022-12-07T16:01:46;4.60;99.90
48019;DHT22;33786;48.690;9.562;2022-12-07T16:04:12;4.60;99.90
48019;DHT22;33786;48.690;9.562;2022-12-07T16:06:39;4.50;99.90
48019;DHT22;33786;48.690;9.562;2022-12-07T16:09:06;4.50;99.90
48019;DHT22;33786;48.690;9.562;2022-12-07T16:11:33;4.50;99.90
48019;DHT22;33786;48.690;9.562;2022-12-07T16:14:00;4.50;99.90
48019;DHT22;33786;48.690;9.562;2022-12-07T16:16:27;4.40;99.90
48019;DHT22;33786;48.690;9.562;2022-12-07T16:18:57;4.50;99.90
48019;DHT22;33786;48.690;9.562;2022-12-07T16:21:23;4.50;99.90
48019;DHT22;33786;48.690;9.562;2022-12-07T16:23:51;4.50;99.90
48019;DHT22;33786;48.690;9.562;2022-12-07T16:26:19;4.40;99.90
48019;DHT22;33786;48.690;9.562;2022-12-07T16:28:48;4.40;99.90
48019;DHT22;33786;48.690;9.562;2022-12-07T16:31:16;4.40;99.90
48019;DHT22;33786;48.690;9.562;2022-12-07T16:33:43;4.80;99.90
48019;DHT22;33786;48.690;9.562;2022-12-07T16:36:11;4.40;99.90
48019;DHT22;33786;48.690;9.562;2022-12-07T16:38:38;4.40;99.90
48019;DHT22;33786;48.690;9.562;2022-12-07T16:41:06;4.40;99.90
48019;DHT22;33786;48.690;9.562;2022-12-07T16:43:33;4.40;99.90
48019;DHT22;33786;48.690;9.562;2022-12-07T16:46:00;4.40;99.90
48019;DHT22;33786;48.690;9.562;2022-12-07T16:48:27;4.30;99.90
48019;DHT22;33786;48.690;9.562;2022-12-07T16:50:54;4.20;99.90
48019;DHT22;33786;48.690;9.562;2022-12-07T16:53:21;4.20;99.90
48019;DHT22;33786;48.690;9.562;2022-12-07T16:55:48;4.30;99.90
48019;DHT22;33786;48.690;9.562;2022-12-07T16:58:15;4.30;99.90
48019;DHT22;33786;48.690;9.562;2022-12-07T17:00:42;4.20;99.90
48019;DHT22;33786;48.690;9.562;2022-12-07T17:03:10;4.20;99.90
48019;DHT22;33786;48.690;9.562;2022-12-07T17:05:43;4.20;99.90
48019;DHT22;33786;48.690;9.562;2022-12-07T17:08:10;4.20;99.90
48019;DHT22;33786;48.690;9.562;2022-12-07T17:10:38;4.10;99.90
48019;DHT22;33786;48.690;9.562;2022-12-07T17:13:05;4.10;99.90
48019;DHT22;33786;48.690;9.562;2022-12-07T17:16:03;4.10;99.90
48019;DHT22;33786;48.690;9.562;2022-12-07T17:18:30;4.00;99.90
48019;DHT22;33786;48.690;9.562;2022-12-07T17:21:07;4.00;99.90
48019;DHT22;33786;48.690;9.562;2022-12-07T17:23:35;4.10;99.90
48019;DHT22;33786;48.690;9.562;2022-12-07T17:26:06;4.10;99.90
48019;DHT22;33786;48.690;9.562;2022-12-07T17:28:33;4.10;99.90
48019;DHT22;33786;48.690;9.562;2022-12-07T17:31:00;4.10;99.90
48019;DHT22;33786;48.690;9.562;2022-12-07T17:33:31;4.00;99.90
48019;DHT22;33786;48.690;9.562;2022-12-07T17:35:58;4.00;99.90
48019;DHT22;33786;48.690;9.562;2022-12-07T17:38:29;4.10;99.90
48019;DHT22;33786;48.690;9.562;2022-12-07T17:40:56;4.10;99.90
48019;DHT22;33786;48.690;9.562;2022-12-07T17:43:22;4.10;99.90
48019;DHT22;33786;48.690;9.562;2022-12-07T17:45:49;4.10;99.90
48019;DHT22;33786;48.690;9.562;2022-12-07T17:48:16;4.10;99.90
48019;DHT22;33786;48.690;9.562;2022-12-07T17:50:43;4.00;99.90
48019;DHT22;33786;48.690;9.562;2022-12-07T17:53:28;4.00;99.90
48019;DHT22;33786;48.690;9.562;2022-12-07T17:55:55;4.10;99.90
48019;DHT22;33786;48.690;9.562;2022-12-07T17:58:41;4.00;99.90
48019;DHT22;33786;48.690;9.562;2022-12-07T18:01:08;4.00;99.90
48019;DHT22;33786;48.690;9.562;2022-12-07T18:03:36;4.00;99.90
48019;DHT22;33786;48.690;9.562;2022-12-07T18:06:03;3.90;99.90
48019;DHT22;33786;48.690;9.562;2022-12-07T18:08:29;3.90;99.90
48019;DHT22;33786;48.690;9.562;2022-12-07T18:11:00;3.90;99.90
48019;DHT22;33786;48.690;9.562;2022-12-07T18:13:27;3.80;99.90
48019;DHT22;33786;48.690;9.562;2022-12-07T18:18:29;3.70;99.90
48019;DHT22;33786;48.690;9.562;2022-12-07T18:20:56;3.60;99.90
48019;DHT22;33786;48.690;9.562;2022-12-07T18:23:23;3.60;99.90